Time;durP1;ratioP1;P1;durP2;ratioP2;P2;SDS_P1;SDS_P2;PMS_P1;PMS_P2;Temp;Humidity;BMP_temperature;BMP_pressure;BME280_temperature;BME280_humidity;BME280_pressure;Samples;Min_cycle;Max_cycle;Signal;HPM_P1;HPM_P2
2022/03/29 00:00:50;;;;;;;;;38.50;31.25;;;;;15.58;39.56;100504.09;5035925;28;45225;-65
2022/03/29 00:03:15;;;;;;;;;42.50;34.00;;;;;15.58;39.39;100514.72;5036167;28;45199;-66
2022/03/29 00:05:40;;;;;;;;;35.00;30.75;;;;;15.57;39.04;100507.69;5036153;28;45515;-70
2022/03/29 00:08:06;;;;;;;;;36.50;28.25;;;;;15.55;39.35;100512.25;5035990;28;45333;-68
2022/03/29 00:10:31;;;;;;;;;33.75;26.25;;;;;15.55;39.55;100510.44;5035764;28;45258;-70
2022/03/29 00:12:57;;;;;;;;;48.75;34.25;;;;;15.52;39.47;100500.03;5036161;28;45415;-70
2022/03/29 00:15:23;;;;;;;;;36.75;33.75;;;;;15.50;39.54;100493.13;5035576;28;46147;-69
2022/03/29 00:17:49;;;;;;;;;52.00;39.25;;;;;15.46;39.71;100481.84;5034155;28;45421;-66
2022/03/29 00:20:17;;;;;;;;;54.00;42.50;;;;;15.44;39.89;100479.31;5035785;28;45386;-66
2022/03/29 00:22:43;;;;;;;;;59.25;43.75;;;;;15.41;39.82;100474.19;5034238;28;45319;-66
2022/03/29 00:25:09;;;;;;;;;57.75;43.00;;;;;15.37;39.84;100469.19;5034003;28;47326;-67
2022/03/29 00:27:35;;;;;;;;;55.25;43.00;;;;;15.38;39.92;100473.53;5035572;28;45215;-69
2022/03/29 00:30:01;;;;;;;;;48.50;36.75;;;;;15.34;39.92;100463.13;5035528;28;45321;-70
2022/03/29 00:32:27;;;;;;;;;40.50;35.25;;;;;15.31;40.12;100459.78;5034391;28;45668;-69
2022/03/29 00:34:52;;;;;;;;;39.25;33.00;;;;;15.32;40.01;100464.16;5035190;28;46519;-70
2022/03/29 00:37:17;;;;;;;;;38.00;33.00;;;;;15.30;40.03;100458.94;5035713;28;45323;-67
2022/03/29 00:39:43;;;;;;;;;42.50;34.50;;;;;15.29;40.12;100459.91;5035451;28;45348;-69
2022/03/29 00:42:08;;;;;;;;;38.75;32.00;;;;;15.28;40.14;100447.59;5035554;28;45324;-67
2022/03/29 00:44:37;;;;;;;;;41.00;32.75;;;;;15.25;40.17;100445.16;5035406;28;46552;-69
2022/03/29 00:47:03;;;;;;;;;41.00;34.75;;;;;15.23;40.10;100439.09;5034031;28;46183;-70
2022/03/29 00:49:29;;;;;;;;;39.50;33.25;;;;;15.20;40.28;100431.34;5035297;28;45328;-69
2022/03/29 00:51:58;;;;;;;;;39.00;31.75;;;;;15.19;40.22;100427.81;5035344;28;45322;-71
2022/03/29 00:54:24;;;;;;;;;38.50;30.25;;;;;15.17;40.25;100426.22;5034866;28;47273;-71
2022/03/29 00:56:50;;;;;;;;;43.00;30.25;;;;;15.12;40.34;100423.00;5035276;28;45462;-70
2022/03/29 00:59:16;;;;;;;;;45.75;33.25;;;;;15.13;40.22;100422.06;5034904;28;45336;-68
2022/03/29 01:01:41;;;;;;;;;42.50;33.25;;;;;15.09;40.20;100412.59;5035375;28;45347;-66
2022/03/29 01:04:07;;;;;;;;;38.00;30.50;;;;;15.08;40.04;100405.59;5037342;28;45339;-66
2022/03/29 01:06:33;;;;;;;;;34.00;26.50;;;;;15.06;40.24;100402.19;5038716;28;45230;-65
2022/03/29 01:08:58;;;;;;;;;36.00;29.25;;;;;15.06;40.10;100397.72;5037409;28;45414;-67
2022/03/29 01:11:26;;;;;;;;;43.50;33.50;;;;;15.03;40.25;100393.50;5038986;28;45337;-73
2022/03/29 01:13:51;;;;;;;;;33.50;30.00;;;;;15.06;40.38;100399.53;5038429;28;47363;-69
2022/03/29 01:19:07;;;;;;;;;33.75;30.25;;;;;15.04;40.02;100399.63;5038787;28;45490;-72
2022/03/29 01:21:37;;;;;;;;;35.25;31.25;;;;;15.02;39.80;100394.44;5037293;28;45263;-70
2022/03/29 01:24:04;;;;;;;;;35.75;32.50;;;;;15.00;39.70;100385.75;5037016;28;48088;-68
2022/03/29 01:26:30;;;;;;;;;30.75;27.25;;;;;14.98;39.85;100395.56;5036874;28;45422;-66
2022/03/29 01:28:57;;;;;;;;;45.75;33.00;;;;;14.92;39.76;100376.56;5038477;28;45297;-67
2022/03/29 01:31:24;;;;;;;;;29.75;28.25;;;;;14.93;39.64;100381.78;5038627;28;45542;-68
2022/03/29 01:33:50;;;;;;;;;40.25;31.75;;;;;14.90;39.97;100379.31;5038491;28;45280;-68
2022/03/29 01:36:15;;;;;;;;;34.25;30.00;;;;;14.87;40.02;100369.75;5037239;28;45397;-70
2022/03/29 01:38:41;;;;;;;;;40.75;32.25;;;;;14.88;40.41;100368.78;5038124;28;45450;-70
2022/03/29 01:41:06;;;;;;;;;41.00;33.50;;;;;14.86;40.88;100364.56;5038104;28;45363;-69
2022/03/29 01:43:32;;;;;;;;;37.00;31.50;;;;;14.81;40.68;100354.22;5038051;28;45277;-68
2022/03/29 01:45:58;;;;;;;;;34.50;31.25;;;;;14.81;40.51;100350.72;5037912;28;45412;-67
2022/03/29 01:48:24;;;;;;;;;35.75;33.00;;;;;14.79;40.62;100350.84;5020587;28;45347;-68
2022/03/29 01:50:51;;;;;;;;;37.00;27.75;;;;;14.81;40.45;100358.66;5038756;28;45430;-66
2022/03/29 01:53:24;;;;;;;;;24.25;19.25;;;;;14.81;40.78;100353.38;5037901;28;46407;-73
2022/03/29 01:55:56;;;;;;;;;39.00;34.00;;;;;14.80;40.59;100352.53;5038159;28;45374;-74
2022/03/29 01:58:24;;;;;;;;;46.25;36.75;;;;;14.79;40.83;100352.59;5038361;28;45417;-75
2022/03/29 02:00:49;;;;;;;;;51.50;40.00;;;;;14.73;41.30;100357.34;5036992;28;45395;-73
2022/03/29 02:03:15;;;;;;;;;49.50;39.50;;;;;14.66;41.72;100348.03;5037762;28;45532;-70
2022/03/29 02:05:40;;;;;;;;;54.25;42.50;;;;;14.61;42.02;100350.13;5038482;28;45300;-69
2022/03/29 02:08:07;;;;;;;;;49.25;40.50;;;;;14.56;42.02;100338.97;5038846;28;45341;-71
2022/03/29 02:10:33;;;;;;;;;49.75;38.75;;;;;14.57;42.16;100340.66;5038034;28;45627;-64
2022/03/29 02:12:59;;;;;;;;;48.75;39.25;;;;;14.56;42.21;100336.31;5038267;28;45367;-67
2022/03/29 02:15:24;;;;;;;;;44.50;38.25;;;;;14.54;42.30;100324.97;5036352;28;45364;-67
2022/03/29 02:17:50;;;;;;;;;41.25;35.75;;;;;14.50;42.52;100326.97;5037924;28;45374;-65
2022/03/29 02:20:16;;;;;;;;;49.00;38.75;;;;;14.45;42.49;100321.94;5037864;28;45301;-68
2022/03/29 02:22:43;;;;;;;;;45.25;37.25;;;;;14.40;42.57;100305.50;5037314;28;46173;-68
2022/03/29 02:25:10;;;;;;;;;47.25;36.25;;;;;14.35;42.97;100309.38;5037978;28;45397;-67
2022/03/29 02:27:41;;;;;;;;;42.50;33.25;;;;;14.27;42.78;100296.59;5039779;28;45298;-70
2022/03/29 02:30:08;;;;;;;;;43.25;36.00;;;;;14.22;43.28;100296.03;5039532;28;45641;-71
2022/03/29 02:32:34;;;;;;;;;37.50;33.00;;;;;14.18;43.56;100290.06;5037694;28;45464;-63
2022/03/29 02:34:59;;;;;;;;;46.00;31.75;;;;;14.14;43.17;100280.59;5037714;28;45364;-65
2022/03/29 02:37:25;;;;;;;;;41.25;35.50;;;;;14.11;43.49;100279.00;5019892;28;45386;-64
2022/03/29 02:39:50;;;;;;;;;37.50;34.00;;;;;14.07;43.22;100274.84;5037845;28;45396;-69
2022/03/29 02:42:15;;;;;;;;;46.50;36.00;;;;;14.06;43.19;100273.16;5037466;28;46873;-69
2022/03/29 02:44:41;;;;;;;;;41.00;31.50;;;;;14.04;42.85;100269.75;5037273;28;45414;-70
2022/03/29 02:47:06;;;;;;;;;38.50;33.00;;;;;14.05;42.96;100266.16;5038433;28;45179;-72
2022/03/29 02:49:32;;;;;;;;;37.75;33.25;;;;;14.04;42.86;100256.53;5038605;28;45487;-73
2022/03/29 02:51:57;;;;;;;;;37.25;33.00;;;;;14.05;42.74;100260.88;5037969;28;46261;-70
2022/03/29 02:54:23;;;;;;;;;36.75;31.00;;;;;14.06;42.73;100256.41;5037141;28;45374;-71
2022/03/29 02:56:48;;;;;;;;;36.25;32.00;;;;;14.06;42.58;100253.75;5036613;28;45341;-71
2022/03/29 02:59:14;;;;;;;;;40.75;31.25;;;;;14.03;42.38;100255.66;5038224;28;45649;-68
2022/03/29 03:01:39;;;;;;;;;40.25;32.75;;;;;14.03;42.48;100255.66;5036685;28;46562;-72
2022/03/29 03:04:05;;;;;;;;;35.25;30.25;;;;;14.02;42.18;100255.75;5036648;28;45187;-72
2022/03/29 03:06:30;;;;;;;;;40.00;33.75;;;;;14.03;42.12;100250.38;5037342;28;45364;-69
2022/03/29 03:08:56;;;;;;;;;37.25;32.25;;;;;14.06;42.12;100254.63;5019481;28;45581;-74
2022/03/29 03:11:22;;;;;;;;;39.50;32.25;;;;;14.06;41.81;100252.00;5036430;28;45440;-73
2022/03/29 03:13:47;;;;;;;;;37.25;31.50;;;;;14.05;41.97;100258.22;5036862;28;45478;-71
2022/03/29 03:16:13;;;;;;;;;36.50;32.50;;;;;14.03;41.44;100253.00;5036833;28;45372;-70
2022/03/29 03:18:39;;;;;;;;;37.25;30.00;;;;;14.02;41.84;100250.47;5018675;28;45388;-68
2022/03/29 03:21:04;;;;;;;;;37.25;31.00;;;;;14.02;41.48;100242.53;5036234;28;47026;-66
2022/03/29 03:23:30;;;;;;;;;36.50;31.75;;;;;13.98;41.43;100241.84;5036950;28;45413;-68
2022/03/29 03:25:55;;;;;;;;;38.50;31.50;;;;;13.94;41.20;100236.84;5036866;28;45348;-69
2022/03/29 03:28:21;;;;;;;;;36.00;27.00;;;;;13.91;41.61;100234.41;5035419;28;45255;-69
2022/03/29 03:30:46;;;;;;;;;37.25;30.25;;;;;13.93;41.07;100237.81;5036147;28;46375;-71
2022/03/29 03:33:12;;;;;;;;;34.75;29.25;;;;;13.96;40.58;100237.63;5036159;28;45435;-70
2022/03/29 03:35:37;;;;;;;;;30.75;26.00;;;;;13.90;40.60;100225.59;5036188;28;45351;-75
2022/03/29 03:38:02;;;;;;;;;36.50;28.00;;;;;13.97;40.59;100232.22;5036735;28;45182;-73
2022/03/29 03:40:28;;;;;;;;;28.50;24.00;;;;;13.97;40.50;100228.75;5036679;28;45211;-71
2022/03/29 03:42:53;;;;;;;;;33.25;26.00;;;;;13.93;40.60;100221.94;5036893;28;45296;-71
2022/03/29 03:45:19;;;;;;;;;28.75;26.50;;;;;13.89;40.67;100223.91;5036480;28;45215;-68
2022/03/29 03:47:46;;;;;;;;;28.75;25.25;;;;;13.88;40.63;100219.56;5036722;28;45540;-66
2022/03/29 03:50:11;;;;;;;;;26.25;26.00;;;;;13.90;40.49;100224.78;5034963;28;47433;-66
2022/03/29 03:52:37;;;;;;;;;33.50;23.00;;;;;13.92;40.36;100222.88;5036194;28;45455;-68
2022/03/29 03:55:03;;;;;;;;;30.50;26.25;;;;;13.91;40.70;100213.25;5035940;28;45830;-68
2022/03/29 03:57:28;;;;;;;;;30.00;24.50;;;;;13.92;40.50;100207.03;5036396;28;45403;-68
2022/03/29 03:59:56;;;;;;;;;25.75;24.50;;;;;13.87;40.83;100205.50;5035715;28;45470;-71
2022/03/29 04:02:22;;;;;;;;;32.50;26.75;;;;;13.80;40.74;100196.25;5036048;28;45297;-71
2022/03/29 04:04:48;;;;;;;;;26.00;24.75;;;;;13.71;41.41;100191.47;5035927;28;45199;-70
2022/03/29 04:07:14;;;;;;;;;30.50;26.25;;;;;13.66;41.27;100194.41;5034908;28;45472;-70
2022/03/29 04:09:39;;;;;;;;;28.75;23.50;;;;;13.59;41.59;100193.06;5035659;28;45504;-69
2022/03/29 04:12:06;;;;;;;;;30.25;24.75;;;;;13.58;41.93;100191.38;5035601;28;45197;-67
2022/03/29 04:14:32;;;;;;;;;36.00;26.25;;;;;13.53;42.03;100190.78;5035579;28;45415;-67
2022/03/29 04:16:57;;;;;;;;;25.00;24.50;;;;;13.47;42.23;100181.41;5036086;28;45428;-65
2022/03/29 04:19:23;;;;;;;;;19.75;18.00;;;;;13.39;42.67;100181.00;5035615;28;46022;-66
2022/03/29 04:21:48;;;;;;;;;38.00;28.00;;;;;13.32;42.70;100171.72;5035770;28;45329;-72
2022/03/29 04:24:14;;;;;;;;;31.50;22.75;;;;;13.26;42.86;100168.50;5035912;28;45377;-70
2022/03/29 04:26:40;;;;;;;;;34.25;24.75;;;;;13.26;43.21;100176.44;5036682;28;45514;-70
2022/03/29 04:29:05;;;;;;;;;32.25;25.75;;;;;13.26;42.76;100181.72;5035805;28;46975;-76
2022/03/29 04:31:31;;;;;;;;;25.50;22.50;;;;;13.24;43.19;100180.94;5035850;28;45420;-74
2022/03/29 04:33:58;;;;;;;;;31.75;28.50;;;;;13.25;43.22;100182.66;5034412;28;45463;-68
2022/03/29 04:36:24;;;;;;;;;29.25;25.75;;;;;13.24;43.43;100175.66;5035770;28;45216;-68
2022/03/29 04:38:50;;;;;;;;;31.50;29.75;;;;;13.24;43.62;100177.44;5034199;28;46426;-73
2022/03/29 04:41:15;;;;;;;;;27.50;24.25;;;;;13.20;43.43;100183.84;5018048;28;45810;-67
2022/03/29 04:43:41;;;;;;;;;30.75;24.75;;;;;13.22;43.44;100174.03;5036155;28;45365;-68
2022/03/29 04:46:07;;;;;;;;;32.75;27.75;;;;;13.23;43.41;100173.09;5034917;28;45415;-70
2022/03/29 04:48:32;;;;;;;;;27.50;27.50;;;;;13.26;43.83;100170.31;5035408;28;46488;-70
2022/03/29 04:50:57;;;;;;;;;21.75;17.75;;;;;13.29;43.52;100167.47;5035991;28;45449;-72
2022/03/29 04:53:23;;;;;;;;;26.00;23.25;;;;;13.32;43.61;100166.44;5035343;28;45409;-71
2022/03/29 04:55:50;;;;;;;;;22.75;22.75;;;;;13.34;43.76;100164.56;5035270;28;45637;-72
2022/03/29 04:58:15;;;;;;;;;28.50;24.25;;;;;13.33;43.96;100166.38;5034880;28;46062;-72
2022/03/29 05:00:41;;;;;;;;;34.50;27.50;;;;;13.35;43.30;100167.13;5017723;28;45909;-71
2022/03/29 05:03:06;;;;;;;;;30.50;27.00;;;;;13.34;43.49;100172.47;5035509;28;45364;-71
2022/03/29 05:05:32;;;;;;;;;28.25;27.00;;;;;13.34;43.34;100175.13;5034584;28;45350;-72
2022/03/29 05:07:57;;;;;;;;;26.00;22.75;;;;;13.34;43.58;100165.44;5035650;28;46423;-67
2022/03/29 05:10:23;;;;;;;;;27.25;27.00;;;;;13.36;43.51;100154.75;5035299;28;45936;-72
2022/03/29 05:12:49;;;;;;;;;29.25;29.00;;;;;13.37;43.25;100161.75;5035163;28;45431;-66
2022/03/29 05:15:17;;;;;;;;;26.25;24.25;;;;;13.33;43.38;100145.22;5039172;28;45347;-69
2022/03/29 05:17:43;;;;;;;;;31.00;25.50;;;;;13.34;43.39;100149.56;5037829;28;45349;-73
2022/03/29 05:20:11;;;;;;;;;26.00;26.00;;;;;13.31;43.22;100144.47;5035708;28;45304;-73
2022/03/29 05:22:42;;;;;;;;;30.75;25.25;;;;;13.33;43.59;100153.16;5035404;28;45207;-66
2022/03/29 05:25:09;;;;;;;;;32.50;27.50;;;;;13.34;44.16;100167.19;5035780;28;45517;-66
2022/03/29 05:27:34;;;;;;;;;34.75;26.50;;;;;13.39;43.95;100179.22;5035448;28;47177;-64
2022/03/29 05:29:59;;;;;;;;;35.75;30.00;;;;;13.43;43.70;100172.84;5034835;28;45447;-65
2022/03/29 05:32:25;;;;;;;;;32.00;28.00;;;;;13.50;43.28;100175.13;5034976;28;45441;-68
2022/03/29 05:34:50;;;;;;;;;31.00;28.00;;;;;13.52;43.04;100174.06;5035206;28;45523;-68
2022/03/29 05:37:16;;;;;;;;;30.00;25.75;;;;;13.56;43.63;100169.47;5037871;28;46230;-73
2022/03/29 05:39:43;;;;;;;;;24.75;24.50;;;;;13.59;42.95;100166.66;5035846;28;45403;-65
2022/03/29 05:42:09;;;;;;;;;30.25;25.00;;;;;13.63;43.30;100164.66;5036233;28;45268;-70
2022/03/29 05:44:37;;;;;;;;;36.00;30.50;;;;;13.65;43.86;100162.78;5035704;28;45376;-70
2022/03/29 05:49:46;;;;;;;;;26.25;26.00;;;;;13.67;42.76;100172.31;5036555;28;45277;-70
2022/03/29 05:52:12;;;;;;;;;31.50;26.50;;;;;13.63;42.37;100160.22;5039932;28;45533;-73
2022/03/29 05:54:39;;;;;;;;;33.50;28.75;;;;;13.59;42.44;100156.06;5038364;28;45338;-68
2022/03/29 05:57:05;;;;;;;;;36.50;30.25;;;;;13.58;42.51;100157.84;5038223;28;46162;-71
2022/03/29 05:59:30;;;;;;;;;33.50;29.75;;;;;13.56;42.75;100149.16;5038660;28;45428;-76
2022/03/29 06:01:58;;;;;;;;;29.25;26.25;;;;;13.57;42.68;100155.31;5038720;28;45376;-72
2022/03/29 06:04:25;;;;;;;;;27.25;25.00;;;;;13.58;42.61;100157.00;5039280;28;45376;-69
2022/03/29 06:06:51;;;;;;;;;33.50;27.50;;;;;13.61;42.38;100161.25;5036423;28;47427;-65
2022/03/29 06:09:16;;;;;;;;;28.00;23.00;;;;;13.66;42.12;100161.81;5037313;28;45402;-73
2022/03/29 06:11:42;;;;;;;;;27.25;23.50;;;;;13.73;42.61;100160.50;5036762;28;45371;-71
2022/03/29 06:14:07;;;;;;;;;35.00;28.50;;;;;13.78;42.62;100155.78;5038490;28;45629;-70
2022/03/29 06:16:32;;;;;;;;;33.25;26.50;;;;;13.80;42.51;100151.31;5039533;28;46396;-69
2022/03/29 06:18:58;;;;;;;;;28.00;26.00;;;;;13.80;42.58;100150.44;5038336;28;45324;-69
2022/03/29 06:21:24;;;;;;;;;41.25;27.50;;;;;13.82;42.59;100154.69;5037302;28;45282;-67
2022/03/29 06:23:50;;;;;;;;;31.50;27.25;;;;;13.86;42.53;100165.91;5037296;28;45426;-69
2022/03/29 06:26:17;;;;;;;;;29.00;27.00;;;;;13.92;42.48;100173.47;5037704;28;45473;-72
2022/03/29 06:28:42;;;;;;;;;33.25;25.50;;;;;13.97;42.90;100181.16;5037425;28;45378;-72
2022/03/29 06:31:08;;;;;;;;;30.50;29.00;;;;;14.07;42.97;100190.22;5018816;28;45249;-69
2022/03/29 06:33:34;;;;;;;;;31.50;27.00;;;;;14.09;43.29;100193.63;5038558;28;45159;-73
2022/03/29 06:35:59;;;;;;;;;33.75;26.50;;;;;14.20;42.12;100192.09;5038708;28;46337;-68
2022/03/29 06:38:25;;;;;;;;;26.75;26.25;;;;;14.25;42.39;100192.66;5019440;28;45224;-67
2022/03/29 06:40:51;;;;;;;;;32.50;27.00;;;;;14.30;41.99;100185.28;5037651;28;45262;-68
2022/03/29 06:43:16;;;;;;;;;31.50;29.00;;;;;14.37;41.69;100186.63;5056676;28;45681;-68
2022/03/29 06:45:45;;;;;;;;;31.75;29.25;;;;;14.41;41.50;100185.47;5076749;27;45434;-70
2022/03/29 06:48:10;;;;;;;;;33.75;30.75;;;;;14.40;41.46;100180.28;5071639;27;45404;-75
2022/03/29 06:50:36;;;;;;;;;34.50;28.25;;;;;14.44;41.70;100192.38;5058665;28;45459;-73
2022/03/29 06:53:01;;;;;;;;;40.50;31.75;;;;;14.50;41.13;100193.78;5072209;28;45311;-74
2022/03/29 06:55:28;;;;;;;;;35.75;29.75;;;;;14.55;41.86;100197.84;5077482;28;45219;-75
2022/03/29 06:57:53;;;;;;;;;31.50;28.00;;;;;14.61;41.36;100186.00;5077579;27;45210;-69
2022/03/29 07:00:20;;;;;;;;;34.75;26.50;;;;;14.67;41.17;100176.84;5057473;28;45225;-70
2022/03/29 07:02:46;;;;;;;;;31.50;30.25;;;;;14.76;41.20;100170.97;5058089;28;45289;-67
2022/03/29 07:05:11;;;;;;;;;30.25;28.25;;;;;14.84;40.90;100167.81;5058739;28;45788;-73
2022/03/29 07:07:36;;;;;;;;;29.50;28.00;;;;;14.94;40.81;100170.75;5060101;28;45430;-72
2022/03/29 07:12:52;;;;;;;;;37.75;29.00;;;;;15.10;40.63;100173.25;5057935;28;45411;-71
2022/03/29 07:15:18;;;;;;;;;33.25;28.25;;;;;15.18;40.56;100170.94;5058240;28;45367;-68
2022/03/29 07:17:47;;;;;;;;;33.25;31.00;;;;;15.26;40.40;100167.75;5058063;28;45470;-75
2022/03/29 07:20:15;;;;;;;;;40.00;32.50;;;;;15.32;40.09;100162.91;5057168;28;45450;-74
2022/03/29 07:22:41;;;;;;;;;37.50;32.75;;;;;15.31;39.77;100150.63;5055772;28;45406;-69
2022/03/29 07:25:07;;;;;;;;;39.75;33.00;;;;;15.27;39.90;100153.56;5054715;28;46678;-71
2022/03/29 07:27:32;;;;;;;;;34.25;30.25;;;;;15.17;40.17;100140.94;5055061;28;45453;-69
2022/03/29 07:29:59;;;;;;;;;45.00;33.25;;;;;15.17;40.52;100148.03;5055284;28;45409;-70
2022/03/29 07:32:25;;;;;;;;;34.75;30.25;;;;;15.19;40.44;100152.28;5054884;28;45438;-66
2022/03/29 07:34:53;;;;;;;;;38.50;33.00;;;;;15.21;40.76;100149.53;5037298;28;47181;-68
2022/03/29 07:37:18;;;;;;;;;36.50;30.50;;;;;15.31;40.31;100161.22;5055213;28;45502;-65
2022/03/29 07:39:44;;;;;;;;;33.25;28.75;;;;;15.34;40.23;100154.84;5038143;28;45492;-68
2022/03/29 07:42:09;;;;;;;;;34.50;30.75;;;;;15.33;39.85;100151.38;5056791;28;45411;-64
2022/03/29 07:44:35;;;;;;;;;37.00;29.00;;;;;15.28;40.18;100155.25;5037716;28;47792;-64
2022/03/29 07:47:00;;;;;;;;;31.75;30.50;;;;;15.21;40.52;100140.72;5055998;28;45411;-65
2022/03/29 07:49:29;;;;;;;;;36.50;27.25;;;;;15.29;40.44;100147.22;5056011;28;45328;-67
2022/03/29 07:51:54;;;;;;;;;53.75;39.00;;;;;15.34;40.81;100154.84;5056178;28;45260;-67
2022/03/29 07:54:19;;;;;;;;;41.00;30.00;;;;;15.33;40.54;100146.06;5057353;28;45952;-69
2022/03/29 07:56:45;;;;;;;;;37.50;28.50;;;;;15.34;40.80;100144.25;5055715;28;45355;-67
2022/03/29 07:59:10;;;;;;;;;40.50;31.00;;;;;15.30;41.11;100132.16;5056141;28;45456;-64
2022/03/29 08:01:36;;;;;;;;;42.75;33.00;;;;;15.30;41.08;100135.66;5055903;28;45228;-63
2022/03/29 08:04:02;;;;;;;;;38.25;34.25;;;;;15.31;41.33;100134.72;5055355;28;45551;-70
2022/03/29 08:06:28;;;;;;;;;43.25;33.75;;;;;15.40;41.70;100141.22;5055641;28;45410;-66
2022/03/29 08:08:53;;;;;;;;;35.75;32.00;;;;;15.45;41.59;100140.88;5055321;28;45450;-65
2022/03/29 08:11:19;;;;;;;;;41.50;33.50;;;;;15.57;41.59;100134.75;5055695;28;45628;-65
2022/03/29 08:13:46;;;;;;;;;41.75;34.25;;;;;15.65;41.37;100136.88;5055444;28;45984;-66
2022/03/29 08:16:11;;;;;;;;;39.75;32.25;;;;;15.68;41.27;100126.06;5055541;28;45312;-66
2022/03/29 08:18:38;;;;;;;;;44.50;32.50;;;;;15.64;41.35;100124.59;5055382;28;45167;-67
2022/03/29 08:21:48;;;;;;;;;35.75;31.50;;;;;15.68;41.34;100119.91;5055275;28;45255;-66
2022/03/29 08:23:49;;;;;;;;;37.75;31.50;;;;;15.78;41.29;100118.31;5055131;28;45464;-65
2022/03/29 08:26:15;;;;;;;;;36.75;32.00;;;;;15.91;41.40;100116.56;5055845;28;45349;-65
2022/03/29 08:28:40;;;;;;;;;40.50;33.00;;;;;16.06;41.16;100109.31;5056351;28;45174;-68
2022/03/29 08:31:05;;;;;;;;;38.25;32.25;;;;;16.16;41.01;100114.81;5055882;28;45396;-69
2022/03/29 08:33:31;;;;;;;;;41.50;33.50;;;;;16.22;40.99;100113.50;5055410;28;45403;-71
2022/03/29 08:35:57;;;;;;;;;39.75;34.25;;;;;16.35;41.04;100119.63;5037218;28;45353;-72
2022/03/29 08:38:24;;;;;;;;;38.50;32.50;;;;;16.50;40.79;100112.38;5055566;28;45367;-69
2022/03/29 08:40:56;;;;;;;;;47.25;36.25;;;;;16.69;40.50;100112.84;5037328;28;45284;-68
2022/03/29 08:43:26;;;;;;;;;48.25;36.50;;;;;16.75;40.09;100099.94;5055434;28;45435;-69
2022/03/29 08:45:52;;;;;;;;;38.50;33.50;;;;;16.83;39.75;100102.06;5038861;28;45465;-66
2022/03/29 08:48:22;;;;;;;;;44.00;36.75;;;;;16.85;39.83;100086.84;5055624;28;45427;-69
2022/03/29 08:50:47;;;;;;;;;40.00;32.50;;;;;16.90;40.23;100087.34;5055958;28;45633;-65
2022/03/29 08:53:16;;;;;;;;;45.25;35.00;;;;;16.99;40.16;100090.31;5055351;28;46338;-68
2022/03/29 08:55:44;;;;;;;;;43.75;35.50;;;;;17.22;39.96;100085.91;5055061;28;45409;-68
2022/03/29 08:58:10;;;;;;;;;39.25;32.50;;;;;17.42;39.37;100083.53;5037074;28;45365;-72
2022/03/29 09:00:35;;;;;;;;;39.75;33.75;;;;;17.45;38.80;100068.19;5054560;28;45248;-67
2022/03/29 09:03:01;;;;;;;;;30.00;29.00;;;;;17.44;38.76;100070.97;5054774;28;46280;-71
2022/03/29 09:05:29;;;;;;;;;41.25;33.00;;;;;17.45;38.44;100065.53;5054731;28;45454;-66
2022/03/29 09:07:59;;;;;;;;;45.25;34.75;;;;;17.41;38.83;100057.91;5054951;28;45447;-69
2022/03/29 09:10:42;;;;;;;;;48.00;36.75;;;;;17.38;38.53;100051.88;5054972;28;45422;-64
2022/03/29 09:13:20;;;;;;;;;42.75;32.50;;;;;17.38;38.86;100054.53;5054730;28;45413;-65
2022/03/29 09:15:47;;;;;;;;;46.75;36.00;;;;;17.37;38.75;100057.28;5036460;28;45884;-66
2022/03/29 09:18:13;;;;;;;;;39.25;34.00;;;;;17.40;38.73;100053.56;5055088;28;45447;-70
2022/03/29 09:20:40;;;;;;;;;58.25;48.75;;;;;17.53;39.28;100062.28;5054949;28;45580;-70
2022/03/29 09:23:15;;;;;;;;;40.75;32.75;;;;;17.76;38.93;100060.50;5036514;28;48186;-70
2022/03/29 09:25:47;;;;;;;;;47.25;38.00;;;;;17.96;38.60;100058.88;5040457;28;45491;-69
2022/03/29 09:28:15;;;;;;;;;56.00;45.75;;;;;18.16;38.77;100047.66;5058804;28;45375;-69
2022/03/29 09:30:51;;;;;;;;;40.00;33.50;;;;;18.37;37.85;100053.88;5058760;28;45634;-67
2022/03/29 09:33:39;;;;;;;;;43.75;34.00;;;;;18.49;37.93;100052.06;5058030;28;46329;-66
2022/03/29 09:36:13;;;;;;;;;44.50;35.75;;;;;18.63;37.08;100052.72;5057858;28;45221;-66
2022/03/29 09:38:41;;;;;;;;;42.25;33.75;;;;;18.71;37.38;100050.28;5058224;28;45408;-68
2022/03/29 09:41:28;;;;;;;;;42.50;34.25;;;;;18.74;36.62;100052.69;5058305;28;45283;-70
2022/03/29 09:44:06;;;;;;;;;40.50;33.00;;;;;18.78;36.38;100053.28;5039575;28;46912;-69
2022/03/29 09:46:52;;;;;;;;;42.25;35.00;;;;;18.75;36.73;100046.38;5058226;28;45249;-72
2022/03/29 09:49:20;;;;;;;;;48.00;37.50;;;;;18.83;36.57;100049.25;5058137;28;45307;-71
2022/03/29 09:51:46;;;;;;;;;44.75;36.00;;;;;18.91;36.78;100048.63;5058453;28;45240;-68
2022/03/29 09:54:11;;;;;;;;;46.25;36.75;;;;;19.04;36.36;100044.94;5057875;28;46741;-73
2022/03/29 09:56:37;;;;;;;;;43.75;36.25;;;;;19.18;36.50;100038.44;5057611;28;45456;-68
2022/03/29 09:59:11;;;;;;;;;40.50;34.00;;;;;19.31;35.89;100036.41;5057132;28;45636;-69
2022/03/29 10:01:47;;;;;;;;;45.50;35.50;;;;;19.45;36.07;100032.53;5022950;28;45491;-66
2022/03/29 10:04:15;;;;;;;;;48.50;37.00;;;;;19.58;34.94;100027.00;5039509;28;45335;-70
2022/03/29 10:06:42;;;;;;;;;42.25;31.50;;;;;19.60;36.07;100027.72;5057887;28;45443;-69
2022/03/29 10:09:27;;;;;;;;;50.75;39.50;;;;;19.68;35.39;100024.38;5039591;28;45284;-70
2022/03/29 10:12:03;;;;;;;;;52.25;41.00;;;;;19.75;35.18;100025.53;5058036;28;45272;-67
2022/03/29 10:14:31;;;;;;;;;49.75;39.50;;;;;19.81;35.02;100013.47;5039059;28;48263;-71
2022/03/29 10:16:57;;;;;;;;;41.00;34.75;;;;;19.92;35.05;100017.88;5057321;28;45372;-66
2022/03/29 10:19:27;;;;;;;;;43.00;35.00;;;;;19.90;34.53;100010.00;5057542;28;45478;-68
2022/03/29 10:21:59;;;;;;;;;43.50;36.00;;;;;19.92;33.95;100013.38;5039136;28;45263;-70
2022/03/29 10:24:25;;;;;;;;;45.50;38.25;;;;;19.92;34.68;100001.88;5057227;28;46183;-66
2022/03/29 10:26:56;;;;;;;;;51.75;39.75;;;;;20.00;34.87;100008.19;5057481;28;45411;-64
2022/03/29 10:29:22;;;;;;;;;48.75;39.50;;;;;20.18;34.54;100004.88;5057496;28;45279;-64
2022/03/29 10:31:52;;;;;;;;;43.50;36.25;;;;;20.25;34.97;99999.81;5057914;28;45304;-68
2022/03/29 10:34:20;;;;;;;;;44.50;36.50;;;;;20.32;34.38;99998.28;5038994;28;47881;-67
2022/03/29 10:37:05;;;;;;;;;41.25;36.00;;;;;20.47;34.44;100000.53;5038082;28;45345;-72
2022/03/29 10:39:45;;;;;;;;;42.00;35.25;;;;;20.57;33.67;99999.56;5057549;28;45247;-65
2022/03/29 10:42:41;;;;;;;;;41.00;34.50;;;;;20.58;34.15;99993.22;5057608;28;45483;-65
2022/03/29 10:45:25;;;;;;;;;53.00;41.75;;;;;20.61;34.08;99984.06;5057913;28;46180;-67
2022/03/29 10:47:55;;;;;;;;;48.50;36.50;;;;;20.72;34.04;99986.63;5038417;28;45740;-64
2022/03/29 10:50:21;;;;;;;;;45.00;36.75;;;;;20.87;33.83;99992.38;5038803;28;45282;-64
2022/03/29 10:52:49;;;;;;;;;51.00;40.75;;;;;21.13;34.04;99981.06;5039037;28;45700;-68
2022/03/29 10:55:22;;;;;;;;;44.00;36.75;;;;;21.33;32.96;99972.13;5056559;28;45287;-66
2022/03/29 10:58:08;;;;;;;;;45.75;35.50;;;;;21.42;32.86;99985.50;5056410;28;45433;-69
2022/03/29 11:00:35;;;;;;;;;37.75;31.25;;;;;21.53;31.60;99984.44;5056457;28;45528;-69
2022/03/29 11:03:21;;;;;;;;;40.25;35.25;;;;;21.56;32.08;99981.47;5056860;28;45346;-66
2022/03/29 11:06:08;;;;;;;;;45.50;37.00;;;;;21.71;31.72;99981.88;5056375;28;45303;-67
2022/03/29 11:08:46;;;;;;;;;37.00;31.75;;;;;21.82;31.49;99963.91;5056304;28;45249;-68
2022/03/29 11:11:37;;;;;;;;;44.00;32.50;;;;;21.91;31.91;99967.53;5057264;28;45387;-72
2022/03/29 11:14:41;;;;;;;;;45.00;35.00;;;;;21.98;31.74;99966.75;5038771;28;45335;-68
2022/03/29 11:17:09;;;;;;;;;36.75;32.25;;;;;22.08;31.39;99964.03;5056013;28;46376;-68
2022/03/29 11:19:47;;;;;;;;;43.75;35.25;;;;;22.13;32.08;99967.09;5038014;28;45455;-68